首页
METAR-TAF:

METAR-TAF

机场 :

乌斯怀亚, 阿根廷

乌斯怀亚国际机场

纬度: 54-48S, 经度: 068-19W, 海拔: 16米

当前天气观测

该预报发布于1小时和4分钟前的14:00 UTC
风速22节,风向西南
温度 9°C
湿度 61%
气压 1001 hPa
能见度10公里或以上
多云层高于3500英尺
附近有阵雨

METAR: SAWH 201400Z 23022KT 9999 VCSH BKN035 09/02 Q1001

时间: 12:04 (15:04 UTC)

预报

该预报发布于4小时和4分钟前的11:00 UTC
预报有效从20日的 12点(UTC)到 21日的 12点(UTC)
风速20节,风向西转西南,有时为30节阵风
能见度10公里或以上
多云层高于3000英尺
散云层高于8000英尺
小阵雨
成为
从 20日的 16点(UTC)到 20日的 18点(UTC)
风速15节,风向西转西北,有时为25节阵风
成为
从 20日的 23点(UTC)到 21日的 01点(UTC)
风速25节,风向西转西北,有时为35节阵风

TAF: SAWH 201100Z 2012/2112 25020G30KT 9999 -SHRA BKN030 SCT080 TX15/2019Z TN05/2119Z BECMG 2016/2018 29015G25KT BECMG 2023/2101 29025G35KT

超过4000个机场的气象观测和天气预报(METAR&TAF报告)。

可查询的气象台以黄色和红色小点在地图上表示。

将鼠标移到小点上方,可查看气象台名称。

然后点击查看天气观测和预报。

如需切换地图:点击带黑十字的绿色按钮放大地图;点击带横线的绿色按钮缩小地图;或者点击绿色箭头查看邻近地区的地图。


METAR-TAF: